Time;durP1;ratioP1;P1;durP2;ratioP2;P2;SDS_P1;SDS_P2;PMS_P1;PMS_P2;Temp;Humidity;BMP_temperature;BMP_pressure;BME280_temperature;BME280_humidity;BME280_pressure;Samples;Min_cycle;Max_cycle;Signal;HPM_P1;HPM_P2
2022/04/07 00:00:33;;;;;;;;;1.33;1.00;;;;;11.83;67.09;99696.03;5059561;28;45277;-69
2022/04/07 00:02:58;;;;;;;;;0.00;0.00;;;;;11.84;67.63;99711.00;5059563;28;45526;-52
2022/04/07 00:05:24;;;;;;;;;1.00;0.00;;;;;11.89;67.32;99711.31;5058964;28;45264;-69
2022/04/07 00:07:49;;;;;;;;;2.00;0.33;;;;;11.91;67.20;99709.28;5059424;28;45438;-67
2022/04/07 00:10:15;;;;;;;;;0.67;0.00;;;;;11.89;67.70;99698.81;5059393;28;45427;-67
2022/04/07 00:12:42;;;;;;;;;2.00;2.00;;;;;11.86;67.04;99693.00;5059483;28;45419;-58
2022/04/07 00:15:09;;;;;;;;;1.67;1.00;;;;;11.87;67.35;99689.34;5058863;28;46289;-64
2022/04/07 00:17:35;;;;;;;;;2.00;0.67;;;;;11.89;66.97;99690.00;5058922;28;45694;-55
2022/04/07 00:20:01;;;;;;;;;2.00;1.67;;;;;11.89;67.10;99680.16;5058780;28;45428;-67
2022/04/07 00:22:26;;;;;;;;;1.00;1.00;;;;;11.88;67.39;99685.66;5059098;28;45446;-66
2022/04/07 00:24:52;;;;;;;;;2.00;0.00;;;;;11.91;67.14;99685.28;5058948;28;46109;-67
2022/04/07 00:27:17;;;;;;;;;3.33;1.00;;;;;11.87;67.06;99673.34;5058746;28;45227;-63
2022/04/07 00:29:43;;;;;;;;;1.00;1.00;;;;;11.92;67.63;99686.94;5058808;28;45245;-63
2022/04/07 00:32:08;;;;;;;;;3.00;1.00;;;;;11.82;67.52;99662.38;5059077;28;45386;-63
2022/04/07 00:34:34;;;;;;;;;1.00;1.00;;;;;11.93;66.97;99684.13;5058333;28;45786;-66
2022/04/07 00:37:00;;;;;;;;;1.00;1.00;;;;;11.92;66.78;99670.97;5058827;28;45377;-69
2022/04/07 00:39:25;;;;;;;;;1.00;1.00;;;;;11.93;66.85;99667.31;5058678;28;45436;-68
2022/04/07 00:41:50;;;;;;;;;1.00;1.00;;;;;11.94;67.17;99676.94;5057863;28;45340;-51
2022/04/07 00:44:16;;;;;;;;;1.33;1.33;;;;;11.93;66.77;99660.13;5058594;28;46189;-56
2022/04/07 00:46:42;;;;;;;;;3.00;2.33;;;;;11.97;66.66;99661.44;5058488;28;45397;-66
2022/04/07 00:49:08;;;;;;;;;0.33;0.33;;;;;11.98;66.67;99643.59;5058465;28;45419;-68
2022/04/07 00:51:37;;;;;;;;;2.00;1.00;;;;;12.00;66.09;99638.91;5058594;28;45391;-65
2022/04/07 00:54:03;;;;;;;;;3.00;2.00;;;;;12.02;66.14;99634.22;5058366;28;45360;-54
2022/04/07 00:56:30;;;;;;;;;2.33;1.00;;;;;11.99;65.93;99610.59;5058285;28;45206;-68
2022/04/07 00:58:55;;;;;;;;;1.00;1.00;;;;;12.04;65.92;99631.38;5058693;28;45496;-53
2022/04/07 01:01:23;;;;;;;;;1.00;1.00;;;;;11.97;65.54;99609.97;5058533;28;45250;-62
2022/04/07 01:03:50;;;;;;;;;0.00;0.00;;;;;11.99;65.73;99600.75;5058319;28;47076;-69
2022/04/07 01:06:15;;;;;;;;;1.67;1.33;;;;;12.03;66.07;99595.06;5057949;28;45403;-68
2022/04/07 01:08:41;;;;;;;;;1.00;1.00;;;;;12.02;65.82;99580.09;5058342;28;45175;-65
2022/04/07 01:11:08;;;;;;;;;1.67;0.33;;;;;11.69;66.21;99553.78;5057098;28;45266;-70
2022/04/07 01:13:52;;;;;;;;;3.67;0.67;;;;;12.00;65.95;99585.59;5058215;28;46451;-55
2022/04/07 01:16:19;;;;;;;;;3.00;1.00;;;;;11.98;65.63;99571.63;5058145;28;45405;-57
2022/04/07 01:18:46;;;;;;;;;5.33;0.67;;;;;11.93;65.53;99556.19;5058169;28;45296;-62
2022/04/07 01:21:14;;;;;;;;;1.00;1.00;;;;;11.94;66.58;99563.19;5058098;28;45383;-53
2022/04/07 01:23:47;;;;;;;;;2.00;1.00;;;;;11.93;65.76;99558.88;5057727;28;46566;-54
2022/04/07 01:26:14;;;;;;;;;1.33;1.00;;;;;11.93;66.10;99560.69;5057860;28;45367;-67
2022/04/07 01:28:46;;;;;;;;;1.00;1.00;;;;;11.83;66.06;99539.66;5057932;28;45545;-68
2022/04/07 01:31:12;;;;;;;;;2.00;2.00;;;;;11.93;66.34;99558.03;5057960;28;45398;-64
2022/04/07 01:33:37;;;;;;;;;3.00;1.00;;;;;11.92;66.48;99540.38;5057694;28;45357;-62
2022/04/07 01:36:04;;;;;;;;;1.67;0.00;;;;;11.90;66.24;99551.22;5057864;28;45443;-68
2022/04/07 01:38:29;;;;;;;;;1.33;1.00;;;;;11.88;66.14;99549.75;5058209;28;45454;-57
2022/04/07 01:40:55;;;;;;;;;1.00;1.00;;;;;11.86;66.82;99551.78;5057854;28;45356;-53
2022/04/07 01:43:20;;;;;;;;;0.67;0.67;;;;;11.83;66.86;99542.31;5057814;28;45294;-57
2022/04/07 01:45:46;;;;;;;;;1.00;1.00;;;;;11.87;66.57;99548.94;5058183;28;45175;-57
2022/04/07 01:48:12;;;;;;;;;2.00;1.00;;;;;11.86;66.81;99535.78;5058576;28;45278;-54
2022/04/07 01:50:38;;;;;;;;;0.67;0.00;;;;;11.86;66.52;99544.63;5058888;28;45589;-62
2022/04/07 01:53:04;;;;;;;;;0.33;0.33;;;;;11.83;67.54;99544.16;5058199;28;47646;-69
2022/04/07 01:55:30;;;;;;;;;0.00;0.00;;;;;11.80;68.06;99539.16;5058523;28;45435;-66
2022/04/07 01:57:56;;;;;;;;;0.67;0.00;;;;;11.80;68.40;99531.16;5057926;28;45434;-69
2022/04/07 02:00:22;;;;;;;;;0.67;0.67;;;;;11.74;68.20;99530.88;5057611;28;45399;-60
2022/04/07 02:02:49;;;;;;;;;1.00;1.00;;;;;11.72;70.67;99540.09;5057362;28;46075;-63
2022/04/07 02:05:15;;;;;;;;;6.00;1.33;;;;;11.66;70.93;99533.63;5057372;28;45315;-68
2022/04/07 02:07:43;;;;;;;;;1.00;1.00;;;;;11.61;70.31;99532.53;5057148;28;45507;-61
2022/04/07 02:10:10;;;;;;;;;2.00;1.67;;;;;11.59;70.62;99532.75;5057350;28;45309;-64
2022/04/07 02:12:37;;;;;;;;;2.00;0.33;;;;;11.59;71.07;99529.25;5056623;28;46629;-67
2022/04/07 02:15:04;;;;;;;;;1.00;1.00;;;;;11.59;71.27;99526.59;5057238;28;45541;-58
2022/04/07 02:17:29;;;;;;;;;1.00;1.00;;;;;11.56;70.71;99521.63;5057439;28;45505;-59
2022/04/07 02:19:59;;;;;;;;;1.67;1.00;;;;;11.60;70.05;99514.91;5057475;28;45281;-58
2022/04/07 02:22:28;;;;;;;;;1.00;1.00;;;;;11.59;70.82;99507.94;5057237;28;47548;-58
2022/04/07 02:24:54;;;;;;;;;6.00;1.33;;;;;11.54;69.94;99479.16;5056869;28;45356;-53
2022/04/07 02:27:19;;;;;;;;;0.00;0.00;;;;;11.62;70.92;99503.06;5057039;28;45359;-65
2022/04/07 02:29:45;;;;;;;;;3.67;2.00;;;;;11.64;71.05;99490.38;5057562;28;45373;-66
2022/04/07 02:32:13;;;;;;;;;4.00;1.67;;;;;11.65;70.55;99492.03;5057016;28;45361;-69
2022/04/07 02:34:40;;;;;;;;;1.00;1.00;;;;;11.68;69.96;99472.22;5057047;28;45380;-53
2022/04/07 02:37:06;;;;;;;;;1.00;0.00;;;;;11.63;70.81;99459.44;5056779;28;45380;-59
2022/04/07 02:39:31;;;;;;;;;2.67;1.67;;;;;11.66;71.31;99466.22;5056954;28;45345;-57
2022/04/07 02:41:56;;;;;;;;;2.67;0.00;;;;;11.61;71.99;99445.47;5056842;28;45409;-58
2022/04/07 02:44:22;;;;;;;;;2.00;2.00;;;;;11.65;70.91;99454.75;5056720;28;45243;-63
2022/04/07 02:46:48;;;;;;;;;1.00;1.00;;;;;11.66;70.56;99440.41;5056868;28;45399;-62
2022/04/07 02:49:13;;;;;;;;;2.00;0.00;;;;;11.61;72.43;99426.81;5056834;28;45556;-61
2022/04/07 02:51:39;;;;;;;;;1.33;1.33;;;;;11.65;71.74;99427.28;5056345;28;45502;-57
2022/04/07 02:54:05;;;;;;;;;1.00;1.00;;;;;11.66;72.07;99419.09;5055564;28;45283;-63
2022/04/07 02:56:30;;;;;;;;;1.33;1.33;;;;;11.64;72.34;99415.81;5056586;28;45443;-60
2022/04/07 02:58:56;;;;;;;;;2.00;2.00;;;;;11.52;72.58;99393.31;5056920;28;45300;-63
2022/04/07 03:01:22;;;;;;;;;2.00;2.00;;;;;11.51;73.27;99390.84;5056459;28;45412;-56
2022/04/07 03:03:49;;;;;;;;;4.67;2.00;;;;;11.57;73.18;99401.56;5056441;28;45360;-71
2022/04/07 03:06:14;;;;;;;;;1.00;1.00;;;;;11.56;73.65;99407.91;5059262;28;45191;-66
2022/04/07 03:08:40;;;;;;;;;1.00;1.00;;;;;11.56;72.83;99391.94;5060318;28;45484;-68
2022/04/07 03:11:07;;;;;;;;;1.00;1.00;;;;;11.57;72.84;99387.44;5060123;28;46101;-66
2022/04/07 03:13:33;;;;;;;;;1.00;1.00;;;;;11.51;73.34;99378.34;5060092;28;45423;-69
2022/04/07 03:15:59;;;;;;;;;4.67;2.67;;;;;11.50;73.45;99366.03;5060145;28;45416;-69
2022/04/07 03:18:24;;;;;;;;;5.00;2.00;;;;;11.56;73.21;99367.16;5060225;28;45458;-52
2022/04/07 03:20:50;;;;;;;;;2.33;2.00;;;;;11.59;72.88;99354.28;5059641;28;47108;-59
2022/04/07 03:23:15;;;;;;;;;1.00;1.00;;;;;11.61;73.25;99360.22;5059653;28;45767;-62
2022/04/07 03:25:41;;;;;;;;;3.00;2.00;;;;;11.63;73.47;99355.56;5059805;28;45194;-65
2022/04/07 03:28:06;;;;;;;;;3.67;2.00;;;;;11.59;73.97;99348.13;5059969;28;45307;-60
2022/04/07 03:30:33;;;;;;;;;4.33;1.00;;;;;11.61;74.13;99319.47;5059710;28;46245;-64
2022/04/07 03:32:58;;;;;;;;;1.00;0.67;;;;;11.64;73.46;99322.56;5059617;28;45229;-65
2022/04/07 03:35:24;;;;;;;;;1.67;1.67;;;;;11.64;74.31;99309.25;5059753;28;45443;-57
2022/04/07 03:37:50;;;;;;;;;3.33;2.00;;;;;11.53;74.03;99284.94;5059773;28;45381;-56
2022/04/07 03:40:16;;;;;;;;;1.67;1.00;;;;;11.66;73.89;99298.41;5059205;28;46050;-63
2022/04/07 03:42:41;;;;;;;;;2.33;2.00;;;;;11.62;74.59;99289.97;5059596;28;45324;-69
2022/04/07 03:45:07;;;;;;;;;4.33;2.00;;;;;11.64;73.59;99284.47;5059659;28;45265;-68
2022/04/07 03:47:32;;;;;;;;;2.00;2.00;;;;;11.64;74.25;99273.81;5059624;28;45495;-58
2022/04/07 03:49:58;;;;;;;;;2.00;2.00;;;;;11.61;74.39;99242.22;5059376;28;46325;-55
2022/04/07 03:52:23;;;;;;;;;5.00;2.67;;;;;11.64;73.09;99242.69;5059142;28;45474;-65
2022/04/07 03:54:49;;;;;;;;;7.00;4.67;;;;;11.61;75.12;99250.22;5059224;28;45339;-67
2022/04/07 03:57:14;;;;;;;;;2.67;2.00;;;;;11.62;73.90;99223.38;5059452;28;45395;-60
2022/04/07 03:59:42;;;;;;;;;7.00;2.33;;;;;11.63;74.51;99237.50;5059278;28;46255;-60
2022/04/07 04:02:09;;;;;;;;;2.33;1.33;;;;;11.62;74.07;99223.38;5059155;28;45387;-64
2022/04/07 04:04:36;;;;;;;;;2.00;0.67;;;;;11.60;74.77;99209.44;5059329;28;45341;-55
2022/04/07 04:07:01;;;;;;;;;2.67;2.00;;;;;11.59;74.56;99218.47;5059698;28;45331;-51
2022/04/07 04:09:27;;;;;;;;;2.67;2.00;;;;;11.62;74.67;99206.56;5058757;28;45398;-58
2022/04/07 04:11:52;;;;;;;;;2.00;2.00;;;;;11.64;74.93;99202.72;5058930;28;45299;-55
2022/04/07 04:14:18;;;;;;;;;2.67;2.67;;;;;11.64;74.47;99220.53;5059299;28;45776;-61
2022/04/07 04:16:43;;;;;;;;;3.00;2.00;;;;;11.66;73.96;99205.19;5059259;28;45359;-66
2022/04/07 04:19:09;;;;;;;;;6.67;3.67;;;;;11.68;74.54;99193.34;5058892;28;45638;-53
2022/04/07 04:21:34;;;;;;;;;3.00;3.00;;;;;11.69;74.50;99184.31;5058893;28;45430;-60
2022/04/07 04:24:00;;;;;;;;;2.00;2.00;;;;;11.73;75.17;99180.25;5058751;28;45301;-67
2022/04/07 04:26:25;;;;;;;;;4.67;3.67;;;;;11.76;75.15;99186.22;5059225;28;45432;-67
2022/04/07 04:28:50;;;;;;;;;5.00;3.00;;;;;11.77;74.56;99177.22;5058822;28;45341;-64
2022/04/07 04:31:16;;;;;;;;;3.00;1.00;;;;;11.79;74.17;99186.66;5058817;28;45259;-68
2022/04/07 04:33:41;;;;;;;;;4.67;3.67;;;;;11.81;74.26;99157.97;5059201;28;45159;-56
2022/04/07 04:36:07;;;;;;;;;1.67;1.67;;;;;11.82;75.26;99182.78;5058964;28;45294;-52
2022/04/07 04:38:33;;;;;;;;;3.00;1.33;;;;;11.84;75.39;99186.94;5058544;28;46351;-59
2022/04/07 04:40:58;;;;;;;;;2.00;2.00;;;;;11.85;75.14;99161.94;5058473;28;45475;-62
2022/04/07 04:43:23;;;;;;;;;2.00;1.00;;;;;11.88;75.04;99171.38;5058630;28;45795;-70
2022/04/07 04:45:49;;;;;;;;;5.33;2.00;;;;;11.88;74.99;99166.03;5058859;28;45854;-67
2022/04/07 04:48:14;;;;;;;;;1.33;1.33;;;;;11.93;74.85;99163.66;5058465;28;46077;-66
2022/04/07 04:50:40;;;;;;;;;1.67;1.67;;;;;11.95;75.02;99166.91;5058343;28;45347;-55
2022/04/07 04:53:05;;;;;;;;;1.00;1.00;;;;;11.96;74.48;99144.56;5058289;28;45350;-60
2022/04/07 04:55:31;;;;;;;;;3.33;2.67;;;;;11.97;74.86;99149.72;5058485;28;45577;-70
2022/04/07 04:57:56;;;;;;;;;4.33;3.00;;;;;11.98;75.10;99148.72;5057120;28;47133;-69
2022/04/07 05:00:21;;;;;;;;;3.00;3.00;;;;;12.02;74.58;99149.16;5058203;28;45305;-66
2022/04/07 05:02:47;;;;;;;;;3.00;2.67;;;;;12.05;74.61;99150.59;5058345;28;45473;-60
2022/04/07 05:05:12;;;;;;;;;4.33;1.67;;;;;12.06;74.35;99141.59;5058426;28;45423;-69
2022/04/07 05:07:38;;;;;;;;;3.00;2.67;;;;;12.09;74.08;99151.84;5058077;28;46105;-58
2022/04/07 05:10:05;;;;;;;;;2.00;2.00;;;;;12.12;73.85;99135.47;5057973;28;45773;-64
2022/04/07 05:12:30;;;;;;;;;1.33;1.33;;;;;12.13;74.15;99132.59;5058196;28;45369;-63
2022/04/07 05:14:55;;;;;;;;;3.33;2.00;;;;;12.17;74.20;99135.69;5058343;28;45485;-55
2022/04/07 05:17:21;;;;;;;;;2.00;1.00;;;;;12.17;73.90;99128.50;5057819;28;45397;-70
2022/04/07 05:19:47;;;;;;;;;2.67;1.00;;;;;12.14;73.38;99120.94;5058028;28;45280;-65
2022/04/07 05:22:12;;;;;;;;;6.33;1.00;;;;;12.19;73.23;99113.16;5057994;28;45379;-66
2022/04/07 05:24:38;;;;;;;;;2.00;2.00;;;;;12.16;73.42;99137.53;5058033;28;45325;-67
2022/04/07 05:27:04;;;;;;;;;0.67;0.67;;;;;12.16;73.42;99102.06;5057475;28;46022;-65
2022/04/07 05:29:29;;;;;;;;;1.00;1.00;;;;;12.18;73.48;99111.53;5057675;28;45267;-56
2022/04/07 05:31:54;;;;;;;;;2.00;0.33;;;;;12.25;72.97;99116.88;5057931;28;45363;-68
2022/04/07 05:34:20;;;;;;;;;0.00;0.00;;;;;12.23;73.38;99113.59;5058259;28;45167;-70
2022/04/07 05:36:45;;;;;;;;;2.00;2.00;;;;;12.28;72.34;99086.34;5057702;28;46464;-62
2022/04/07 05:39:12;;;;;;;;;2.33;2.00;;;;;12.31;72.93;99088.63;5057784;28;45290;-59
2022/04/07 05:41:38;;;;;;;;;3.00;2.00;;;;;12.33;72.08;99083.91;5057671;28;45405;-61
2022/04/07 05:44:04;;;;;;;;;1.00;1.00;;;;;12.36;71.95;99083.50;5057929;28;45441;-53
2022/04/07 05:46:29;;;;;;;;;0.00;0.00;;;;;12.36;72.46;99076.31;5057675;28;45859;-54
2022/04/07 05:48:55;;;;;;;;;1.00;1.00;;;;;12.38;71.86;99060.94;5057555;28;45368;-69
2022/04/07 05:51:20;;;;;;;;;0.67;0.33;;;;;12.42;71.85;99074.69;5057544;28;45409;-60
2022/04/07 05:53:45;;;;;;;;;0.00;0.00;;;;;12.42;71.61;99064.84;5057555;28;45380;-69
2022/04/07 05:56:11;;;;;;;;;4.00;2.00;;;;;12.44;72.57;99076.16;5057439;28;46092;-60
2022/04/07 05:58:36;;;;;;;;;0.67;0.67;;;;;12.48;72.58;99084.59;5055973;28;45294;-58
2022/04/07 06:01:02;;;;;;;;;1.00;1.00;;;;;12.49;72.06;99072.88;5057370;28;45283;-67
2022/04/07 06:03:27;;;;;;;;;1.00;1.00;;;;;12.46;71.70;99062.59;5057649;28;45428;-67
2022/04/07 06:05:55;;;;;;;;;2.00;0.00;;;;;12.48;71.42;99053.41;5057157;28;46140;-57
2022/04/07 06:08:21;;;;;;;;;3.00;0.00;;;;;12.54;71.13;99069.63;5057393;28;45371;-64
2022/04/07 06:10:47;;;;;;;;;1.00;1.00;;;;;12.52;71.33;99067.16;5056961;28;45489;-55
2022/04/07 06:13:14;;;;;;;;;2.00;2.00;;;;;12.53;71.11;99060.78;5057326;28;45468;-66
2022/04/07 06:15:40;;;;;;;;;7.33;2.33;;;;;12.57;70.49;99075.38;5057126;28;45447;-64
2022/04/07 06:18:06;;;;;;;;;1.67;1.67;;;;;12.59;70.49;99078.66;5057006;28;45364;-61
2022/04/07 06:20:32;;;;;;;;;3.33;3.00;;;;;12.61;70.89;99079.28;5057310;28;45175;-64
2022/04/07 06:22:57;;;;;;;;;1.00;0.67;;;;;12.62;70.32;99070.25;5057392;28;45459;-64
2022/04/07 06:25:23;;;;;;;;;1.33;1.33;;;;;12.63;70.74;99066.56;5056591;28;47063;-63
2022/04/07 06:27:49;;;;;;;;;3.33;1.33;;;;;12.66;70.17;99062.69;5057122;28;45404;-66
2022/04/07 06:30:16;;;;;;;;;6.00;1.33;;;;;12.65;70.33;99066.38;5057221;28;45187;-55
2022/04/07 06:32:43;;;;;;;;;1.00;1.00;;;;;12.66;70.38;99057.34;5057257;28;45429;-54
2022/04/07 06:35:10;;;;;;;;;2.33;2.00;;;;;12.66;70.47;99044.81;5056799;28;45404;-58
2022/04/07 06:37:48;;;;;;;;;5.00;1.00;;;;;12.66;70.36;99052.00;5056947;28;45392;-63
2022/04/07 06:40:14;;;;;;;;;2.67;0.67;;;;;12.67;70.21;99045.66;5058213;28;45539;-62
2022/04/07 06:42:39;;;;;;;;;1.00;1.00;;;;;12.68;69.94;99034.78;5060735;28;45244;-61
2022/04/07 06:45:05;;;;;;;;;1.00;1.00;;;;;12.66;70.79;99034.16;5060363;28;45594;-65
2022/04/07 06:47:39;;;;;;;;;1.33;1.00;;;;;12.67;70.45;99029.63;5060677;28;45305;-67
2022/04/07 06:50:06;;;;;;;;;1.00;1.00;;;;;12.68;70.80;99040.13;5060372;28;45536;-62
2022/04/07 06:52:32;;;;;;;;;1.00;0.67;;;;;12.71;70.91;99047.69;5060473;28;45499;-64
2022/04/07 06:54:57;;;;;;;;;2.33;1.00;;;;;12.71;70.93;99037.03;5060122;28;45429;-63
2022/04/07 06:57:22;;;;;;;;;0.33;0.33;;;;;12.77;71.38;99031.91;5060245;28;45348;-64
2022/04/07 06:59:48;;;;;;;;;1.00;1.00;;;;;12.76;71.35;99036.41;5060406;28;45313;-66
2022/04/07 07:02:14;;;;;;;;;3.00;1.00;;;;;12.81;71.06;99030.47;5060691;28;45369;-66
2022/04/07 07:04:39;;;;;;;;;2.00;1.00;;;;;12.81;70.74;99025.97;5057501;28;46207;-56
2022/04/07 07:07:05;;;;;;;;;0.33;0.33;;;;;12.85;70.89;99039.72;5057740;28;46248;-62
2022/04/07 07:09:30;;;;;;;;;0.67;0.67;;;;;12.82;70.62;99024.13;5052635;28;45587;-59
2022/04/07 07:11:56;;;;;;;;;0.00;0.00;;;;;12.84;71.18;99064.75;5057532;28;46406;-66
2022/04/07 07:14:21;;;;;;;;;1.00;0.00;;;;;12.83;70.91;99033.78;5057547;28;47027;-63
2022/04/07 07:16:48;;;;;;;;;0.67;0.00;;;;;12.89;70.83;99016.94;5057057;28;45479;-66
2022/04/07 07:19:15;;;;;;;;;2.67;1.00;;;;;12.91;70.95;99028.25;5057174;28;45401;-63
2022/04/07 07:21:40;;;;;;;;;2.67;0.00;;;;;12.92;71.00;99038.72;5057493;28;45326;-66
2022/04/07 07:24:06;;;;;;;;;2.00;1.00;;;;;12.92;71.72;99017.34;5056944;28;46281;-66
2022/04/07 07:26:31;;;;;;;;;0.00;0.00;;;;;12.95;70.91;99022.28;5055788;28;45571;-66
2022/04/07 07:28:57;;;;;;;;;3.33;1.00;;;;;12.92;70.61;99012.03;5057227;28;45419;-68
2022/04/07 07:31:22;;;;;;;;;0.00;0.00;;;;;13.01;71.17;99025.97;5056197;28;45469;-66
2022/04/07 07:33:48;;;;;;;;;2.67;1.00;;;;;13.01;71.63;99020.66;5056246;28;45436;-54
2022/04/07 07:36:13;;;;;;;;;2.00;0.00;;;;;13.02;71.25;99033.00;5055764;28;45502;-68
2022/04/07 07:38:39;;;;;;;;;3.33;1.00;;;;;12.97;71.34;99019.41;5056661;28;45741;-55
2022/04/07 07:41:05;;;;;;;;;2.00;0.00;;;;;12.96;71.70;99018.59;5056937;28;45462;-66
2022/04/07 07:43:31;;;;;;;;;0.33;0.00;;;;;12.96;71.53;99023.94;5056308;28;45632;-52
2022/04/07 07:45:56;;;;;;;;;4.67;0.00;;;;;12.94;71.77;99023.31;5056644;28;45434;-54
2022/04/07 07:48:26;;;;;;;;;3.00;1.00;;;;;13.02;71.74;99005.44;5056846;28;45519;-61
2022/04/07 07:50:52;;;;;;;;;0.00;0.00;;;;;13.09;72.05;99000.94;5056936;28;45529;-65
2022/04/07 07:53:18;;;;;;;;;0.00;0.00;;;;;13.22;70.99;98987.59;5056032;28;46208;-65
2022/04/07 07:55:43;;;;;;;;;2.33;0.00;;;;;13.32;71.19;98987.22;5054799;28;45486;-70
2022/04/07 07:58:09;;;;;;;;;0.33;0.33;;;;;13.36;70.99;98985.78;5054872;28;45773;-52
2022/04/07 08:00:34;;;;;;;;;0.00;0.00;;;;;13.40;70.99;98984.31;5056403;28;45506;-52
2022/04/07 08:02:59;;;;;;;;;2.00;1.00;;;;;13.48;71.20;98978.75;5056331;28;45515;-51
2022/04/07 08:05:25;;;;;;;;;1.00;1.00;;;;;13.58;71.08;98975.66;5056375;28;45487;-50
2022/04/07 08:07:50;;;;;;;;;0.00;0.00;;;;;13.75;70.83;98990.19;5056752;28;45264;-51
2022/04/07 08:10:15;;;;;;;;;0.00;0.00;;;;;13.78;70.46;98976.44;5056767;28;45596;-53
2022/04/07 08:12:41;;;;;;;;;0.00;0.00;;;;;13.69;70.02;98970.50;5056046;28;46096;-54
2022/04/07 08:15:07;;;;;;;;;1.00;0.00;;;;;13.69;70.72;98983.84;5056425;28;45504;-53
2022/04/07 08:17:32;;;;;;;;;0.00;0.00;;;;;13.68;70.75;98982.19;5056577;28;45198;-55
2022/04/07 08:19:58;;;;;;;;;0.00;0.00;;;;;13.62;71.77;98979.56;5056659;28;45538;-55
2022/04/07 08:22:24;;;;;;;;;0.00;0.00;;;;;13.63;71.38;98990.03;5056178;28;46277;-55
2022/04/07 08:24:49;;;;;;;;;0.00;0.00;;;;;13.81;70.65;98977.84;5056221;28;45762;-55
2022/04/07 08:27:15;;;;;;;;;1.00;0.00;;;;;14.16;70.07;98968.47;5056272;28;45439;-50
2022/04/07 08:29:40;;;;;;;;;0.00;0.00;;;;;14.65;68.74;98968.81;5056381;28;45396;-54
2022/04/07 08:32:06;;;;;;;;;0.00;0.00;;;;;14.94;67.67;98957.47;5056171;28;45544;-53
2022/04/07 08:34:31;;;;;;;;;2.00;0.00;;;;;15.21;66.75;98976.81;5055762;28;45490;-53
2022/04/07 08:36:57;;;;;;;;;1.33;0.00;;;;;15.29;66.71;98974.88;5055942;28;45789;-52
2022/04/07 08:39:22;;;;;;;;;0.00;0.00;;;;;15.20;66.02;98951.06;5056302;28;45481;-54
2022/04/07 08:41:48;;;;;;;;;1.00;0.00;;;;;15.51;65.94;98997.56;5055751;28;45415;-53
2022/04/07 08:44:17;;;;;;;;;0.00;0.00;;;;;15.87;65.17;98953.06;5055797;28;45416;-51
2022/04/07 08:46:52;;;;;;;;;0.00;0.00;;;;;16.29;63.41;98964.69;5053247;28;45400;-54
2022/04/07 08:49:21;;;;;;;;;0.00;0.00;;;;;16.67;63.21;98955.50;5056174;28;45400;-53
2022/04/07 08:51:48;;;;;;;;;0.00;0.00;;;;;16.78;61.46;98970.84;5051556;28;47521;-54
2022/04/07 08:54:13;;;;;;;;;0.00;0.00;;;;;16.63;61.81;98949.75;5055691;28;45458;-55
2022/04/07 08:56:39;;;;;;;;;0.00;0.00;;;;;16.51;62.27;98959.63;5055386;28;45388;-55
2022/04/07 08:59:05;;;;;;;;;0.00;0.00;;;;;16.35;63.19;98955.75;5056332;28;45642;-54
2022/04/07 09:01:30;;;;;;;;;0.00;0.00;;;;;16.36;62.96;98953.88;5055395;28;45518;-52
2022/04/07 09:03:55;;;;;;;;;0.00;0.00;;;;;16.54;62.08;98964.56;5054810;28;45454;-56
2022/04/07 09:06:23;;;;;;;;;0.00;0.00;;;;;16.62;62.15;98958.06;5055238;28;45562;-52
2022/04/07 09:08:48;;;;;;;;;0.00;0.00;;;;;16.61;61.94;98967.16;5055903;28;45488;-52
2022/04/07 09:11:17;;;;;;;;;0.00;0.00;;;;;16.53;61.39;98957.56;5055068;28;46169;-48
2022/04/07 09:13:47;;;;;;;;;0.00;0.00;;;;;16.29;61.81;98951.28;5055316;28;45759;-55
2022/04/07 09:16:15;;;;;;;;;0.00;0.00;;;;;16.32;62.05;98960.75;5055108;28;45508;-52
2022/04/07 09:18:43;;;;;;;;;0.00;0.00;;;;;16.49;62.26;98958.25;5055454;28;46493;-54
2022/04/07 09:21:23;;;;;;;;;0.00;0.00;;;;;16.72;61.54;98977.09;5055095;28;46319;-54
2022/04/07 09:23:48;;;;;;;;;1.00;0.00;;;;;16.60;61.26;98971.72;5054629;28;45539;-54
2022/04/07 09:26:15;;;;;;;;;0.00;0.00;;;;;16.44;61.96;98943.66;5055549;28;45480;-51
2022/04/07 09:28:42;;;;;;;;;0.00;0.00;;;;;16.33;62.61;98965.88;5055019;28;45446;-53
2022/04/07 09:31:15;;;;;;;;;2.00;0.00;;;;;16.37;62.66;98960.88;5054259;28;46068;-54
2022/04/07 09:33:41;;;;;;;;;0.00;0.00;;;;;16.57;62.15;98953.38;5055074;28;45506;-54
2022/04/07 09:36:11;;;;;;;;;0.00;0.00;;;;;16.77;61.60;98955.78;5054824;28;45315;-54
2022/04/07 09:38:38;;;;;;;;;1.67;0.00;;;;;17.13;60.85;98938.66;5054732;28;45509;-54
2022/04/07 09:41:11;;;;;;;;;0.00;0.00;;;;;17.16;60.58;98956.19;5054533;28;46167;-55
2022/04/07 09:43:47;;;;;;;;;0.00;0.00;;;;;17.07;60.28;98968.34;5054650;28;45442;-52
2022/04/07 09:46:15;;;;;;;;;0.33;0.00;;;;;17.00;60.68;98971.13;5053494;28;45834;-53
2022/04/07 09:48:58;;;;;;;;;0.00;0.00;;;;;16.78;60.45;98975.41;5055241;28;45646;-53
2022/04/07 09:51:25;;;;;;;;;0.00;0.00;;;;;16.74;60.75;98975.03;5054693;28;46189;-54
2022/04/07 09:53:55;;;;;;;;;0.00;0.00;;;;;16.60;61.47;98950.25;5054557;28;45395;-51
2022/04/07 09:56:24;;;;;;;;;0.67;0.67;;;;;16.49;61.03;98979.72;5054784;28;45524;-57
2022/04/07 09:58:51;;;;;;;;;0.00;0.00;;;;;16.42;60.94;98986.00;5054957;28;46208;-57
2022/04/07 10:01:16;;;;;;;;;0.00;0.00;;;;;16.41;60.85;98983.53;5054440;28;46162;-53
2022/04/07 10:03:43;;;;;;;;;0.33;0.00;;;;;16.40;61.01;98985.41;5052664;28;45463;-53
2022/04/07 10:06:09;;;;;;;;;0.00;0.00;;;;;16.44;61.59;98975.03;5054779;28;45406;-52
2022/04/07 10:08:36;;;;;;;;;0.00;0.00;;;;;16.44;61.07;98978.53;5055146;28;45380;-53
2022/04/07 10:11:03;;;;;;;;;1.00;0.00;;;;;16.45;61.31;98988.22;5054407;28;47339;-53
2022/04/07 10:13:30;;;;;;;;;1.67;0.00;;;;;16.38;61.51;98975.94;5054241;28;45492;-52
2022/04/07 10:15:57;;;;;;;;;0.00;0.00;;;;;16.37;61.65;98979.66;5054630;28;45578;-53
2022/04/07 10:18:31;;;;;;;;;0.00;0.00;;;;;16.26;61.88;98980.44;5054424;28;45465;-56
2022/04/07 10:20:58;;;;;;;;;0.00;0.00;;;;;16.21;62.44;99000.72;5054297;28;45363;-52
2022/04/07 10:23:54;;;;;;;;;0.67;0.00;;;;;15.99;63.35;99041.66;5054370;28;45471;-52
2022/04/07 10:26:23;;;;;;;;;1.00;0.00;;;;;15.77;65.10;99058.16;5054234;28;45541;-52
2022/04/07 10:28:55;;;;;;;;;1.67;0.00;;;;;15.68;66.40;99048.78;5054681;28;45238;-50
2022/04/07 10:31:22;;;;;;;;;0.00;0.00;;;;;15.78;67.21;99048.25;5051125;28;46009;-54
2022/04/07 10:33:48;;;;;;;;;0.00;0.00;;;;;15.82;65.34;99057.50;5055735;28;45375;-52
2022/04/07 10:36:22;;;;;;;;;1.00;1.00;;;;;15.62;65.00;99050.44;5055875;28;45429;-54
2022/04/07 10:38:50;;;;;;;;;2.00;0.33;;;;;15.70;65.66;99082.34;5057419;28;45235;-53
2022/04/07 10:41:37;;;;;;;;;0.00;0.00;;;;;15.81;64.73;99071.94;5056921;28;46389;-53
2022/04/07 10:44:16;;;;;;;;;0.67;0.67;;;;;16.25;64.33;99075.38;5056639;28;45497;-52
2022/04/07 10:46:43;;;;;;;;;0.00;0.00;;;;;17.08;62.31;99069.38;5056831;28;45323;-56
2022/04/07 10:49:10;;;;;;;;;1.00;0.00;;;;;17.59;61.05;99084.06;5057241;28;45424;-57
2022/04/07 10:51:45;;;;;;;;;0.00;0.00;;;;;17.75;60.12;99082.56;5056674;28;46296;-53
2022/04/07 10:54:12;;;;;;;;;1.33;0.33;;;;;18.04;59.23;99097.78;5056793;28;45921;-54
2022/04/07 10:56:39;;;;;;;;;1.33;0.00;;;;;18.55;58.16;99100.72;5056734;28;45450;-56
2022/04/07 10:59:21;;;;;;;;;0.33;0.33;;;;;18.44;58.02;99086.22;5056794;28;45456;-54
2022/04/07 11:01:53;;;;;;;;;2.00;0.00;;;;;19.38;54.48;99083.13;5056528;28;46211;-51
2022/04/07 11:04:21;;;;;;;;;0.75;0.75;;;;;19.89;53.44;99090.16;5056726;28;45335;-55
2022/04/07 11:07:04;;;;;;;;;0.25;0.00;;;;;21.00;51.97;99089.13;5056974;28;45308;-56
2022/04/07 11:09:50;;;;;;;;;0.00;0.00;;;;;21.70;49.66;99103.56;5057049;28;45362;-54
2022/04/07 11:12:33;;;;;;;;;0.00;0.00;;;;;21.70;48.71;99121.66;5056381;28;47212;-53
2022/04/07 11:15:01;;;;;;;;;0.00;0.00;;;;;21.40;46.68;99104.09;5054954;28;45457;-55
2022/04/07 11:17:52;;;;;;;;;0.00;0.00;;;;;21.93;47.51;99107.75;5056743;28;45221;-56
2022/04/07 11:20:25;;;;;;;;;0.00;0.00;;;;;22.28;46.19;99114.50;4974801;28;45538;-55
2022/04/07 11:23:09;;;;;;;;;0.00;0.00;;;;;22.34;45.75;99113.47;4974790;28;47145;-55
2022/04/07 11:25:37;;;;;;;;;0.00;0.00;;;;;22.79;44.34;99128.25;4989619;28;45562;-55
2022/04/07 11:28:25;;;;;;;;;0.40;0.40;;;;;23.38;44.33;99117.81;4995569;28;45469;-56
2022/04/07 11:30:52;;;;;;;;;0.00;0.00;;;;;23.06;42.23;99128.91;4995483;28;45583;-50
2022/04/07 11:33:20;;;;;;;;;0.80;0.00;;;;;22.35;42.39;99140.28;4995164;28;45475;-52